createdAt,value
2024-01-17T00:00:14.250Z,4.30
2024-01-17T00:01:14.224Z,4.50
2024-01-17T00:02:14.161Z,4.10
2024-01-17T00:03:14.252Z,4.80
2024-01-17T00:04:14.134Z,4.60
2024-01-17T00:05:14.134Z,4.30
2024-01-17T00:06:14.193Z,3.50
2024-01-17T00:07:14.230Z,3.80
2024-01-17T00:08:14.118Z,4.70
2024-01-17T00:09:14.112Z,4.00
2024-01-17T00:10:14.086Z,3.90
2024-01-17T00:11:14.120Z,4.40
2024-01-17T00:12:14.181Z,4.50
2024-01-17T00:13:14.063Z,3.60
2024-01-17T00:14:14.082Z,3.90
2024-01-17T00:15:14.072Z,4.70
2024-01-17T00:16:14.075Z,12.00
2024-01-17T00:17:14.082Z,15.10
2024-01-17T00:18:14.144Z,31.40
2024-01-17T00:19:14.222Z,23.90
2024-01-17T00:20:14.043Z,11.40
2024-01-17T00:21:14.013Z,13.00
2024-01-17T00:22:14.036Z,9.40
2024-01-17T00:23:14.036Z,11.20
2024-01-17T00:24:14.027Z,8.30
2024-01-17T00:25:13.997Z,7.90
2024-01-17T00:26:13.991Z,10.30
2024-01-17T00:27:14.005Z,7.70
2024-01-17T00:28:14.019Z,8.60
2024-01-17T00:29:13.986Z,9.00
2024-01-17T00:30:14.101Z,7.20
2024-01-17T00:31:14.000Z,5.40
2024-01-17T00:32:13.990Z,5.20
2024-01-17T00:33:14.088Z,9.70
2024-01-17T00:34:14.090Z,25.40
2024-01-17T00:35:13.992Z,24.40
2024-01-17T00:36:14.026Z,30.60
2024-01-17T00:37:13.957Z,25.50
2024-01-17T00:38:13.989Z,20.80
2024-01-17T00:39:14.030Z,22.00
2024-01-17T00:40:13.927Z,21.60
2024-01-17T00:41:13.936Z,28.70
2024-01-17T00:42:13.945Z,32.50
2024-01-17T00:43:13.973Z,31.80
2024-01-17T00:44:13.930Z,25.20
2024-01-17T00:45:13.992Z,21.30
2024-01-17T00:46:13.918Z,27.20
2024-01-17T00:47:14.058Z,28.40
2024-01-17T00:48:13.978Z,22.80
2024-01-17T00:49:13.909Z,13.30
2024-01-17T00:50:13.873Z,10.40
2024-01-17T00:51:13.986Z,12.30
2024-01-17T00:52:13.887Z,14.80
2024-01-17T00:53:13.873Z,13.30
2024-01-17T00:54:13.873Z,12.50
2024-01-17T00:55:13.869Z,15.20
2024-01-17T00:56:13.829Z,17.00
2024-01-17T00:57:13.836Z,18.20
2024-01-17T00:58:13.840Z,18.60
2024-01-17T00:59:13.871Z,16.80
2024-01-17T01:00:13.841Z,11.00
2024-01-17T01:01:13.876Z,9.90
2024-01-17T01:02:13.811Z,8.30
2024-01-17T01:03:13.886Z,6.40
2024-01-17T01:04:13.854Z,6.20
2024-01-17T01:05:13.812Z,6.50
2024-01-17T01:06:13.810Z,5.70
2024-01-17T01:07:13.885Z,6.40
2024-01-17T01:08:13.807Z,6.10
2024-01-17T01:09:13.978Z,6.70
2024-01-17T01:10:13.791Z,4.40
2024-01-17T01:11:13.796Z,5.50
2024-01-17T01:12:13.804Z,4.80
2024-01-17T01:13:13.819Z,4.90
2024-01-17T01:14:13.791Z,5.10
2024-01-17T01:15:13.792Z,5.10
2024-01-17T01:16:13.758Z,5.70
2024-01-17T01:17:13.732Z,5.10
2024-01-17T01:18:13.936Z,4.70
2024-01-17T01:19:13.853Z,4.60
2024-01-17T01:20:13.744Z,5.80
2024-01-17T01:21:13.722Z,4.90
2024-01-17T01:22:13.705Z,4.90
2024-01-17T01:23:13.816Z,5.90
2024-01-17T01:24:13.748Z,5.10
2024-01-17T01:25:13.716Z,5.50
2024-01-17T01:26:13.703Z,4.50
2024-01-17T01:27:13.792Z,5.00
2024-01-17T01:28:13.728Z,5.20
2024-01-17T01:29:13.683Z,5.30
2024-01-17T01:30:13.809Z,4.70
2024-01-17T01:31:13.716Z,5.20
2024-01-17T01:32:13.657Z,5.30
2024-01-17T01:33:13.765Z,5.30
2024-01-17T01:34:16.327Z,4.60
2024-01-17T01:35:14.710Z,4.90
2024-01-17T01:36:13.710Z,4.70
2024-01-17T01:37:13.648Z,5.50
2024-01-17T01:38:13.657Z,4.90
2024-01-17T01:39:13.750Z,4.80
2024-01-17T01:40:13.665Z,4.80
2024-01-17T01:41:13.677Z,5.30
2024-01-17T01:42:13.698Z,5.40
2024-01-17T01:43:13.636Z,4.40
2024-01-17T01:44:13.636Z,5.10
2024-01-17T01:45:13.694Z,4.70
2024-01-17T01:46:13.640Z,4.90
2024-01-17T01:47:13.625Z,4.70
2024-01-17T01:48:13.685Z,5.30
2024-01-17T01:49:13.817Z,5.30
2024-01-17T01:50:13.619Z,5.10
2024-01-17T01:51:13.647Z,4.10
2024-01-17T01:52:13.576Z,5.40
2024-01-17T01:53:13.580Z,4.40
2024-01-17T01:54:13.635Z,5.00
2024-01-17T01:55:13.682Z,4.60
2024-01-17T01:56:13.583Z,4.80
2024-01-17T01:57:13.614Z,4.60
2024-01-17T01:58:13.543Z,4.60
2024-01-17T01:59:13.549Z,4.50
2024-01-17T02:00:13.598Z,5.30
2024-01-17T02:01:13.605Z,4.50
2024-01-17T02:02:13.561Z,4.70
2024-01-17T02:03:13.588Z,4.80
2024-01-17T02:04:13.614Z,5.00
2024-01-17T02:05:13.590Z,4.40
2024-01-17T02:06:13.600Z,4.50
2024-01-17T02:07:13.521Z,4.90
2024-01-17T02:08:13.534Z,4.40
2024-01-17T02:09:13.524Z,4.60
2024-01-17T02:10:13.521Z,4.50
2024-01-17T02:11:13.608Z,4.80
2024-01-17T02:12:13.549Z,4.10
2024-01-17T02:13:13.504Z,4.60
2024-01-17T02:14:13.501Z,4.10
2024-01-17T02:15:13.546Z,4.80
2024-01-17T02:16:13.501Z,4.60
2024-01-17T02:17:13.474Z,4.50
2024-01-17T02:18:13.533Z,4.70
2024-01-17T02:19:13.495Z,4.20
2024-01-17T02:20:13.497Z,4.80
2024-01-17T02:21:13.542Z,4.60
2024-01-17T02:22:13.442Z,4.10
2024-01-17T02:23:13.449Z,4.50
2024-01-17T02:24:13.452Z,4.70
2024-01-17T02:25:13.425Z,5.00
2024-01-17T02:26:13.447Z,4.50
2024-01-17T02:27:13.550Z,4.60
2024-01-17T02:28:13.433Z,4.40
2024-01-17T02:29:13.427Z,4.90
2024-01-17T02:30:13.542Z,4.50
2024-01-17T02:31:13.508Z,4.20
2024-01-17T02:32:13.372Z,4.40
2024-01-17T02:33:13.506Z,4.50
2024-01-17T02:34:13.589Z,4.60
2024-01-17T02:35:13.392Z,4.00
2024-01-17T02:36:13.538Z,3.70
2024-01-17T02:37:13.359Z,4.60
2024-01-17T02:38:13.352Z,5.00
2024-01-17T02:39:13.460Z,3.80
2024-01-17T02:40:13.391Z,4.90
2024-01-17T02:41:13.369Z,4.10
2024-01-17T02:42:13.483Z,4.50
2024-01-17T02:43:13.346Z,5.00
2024-01-17T02:44:13.346Z,4.20
2024-01-17T02:45:13.418Z,4.30
2024-01-17T02:46:13.337Z,4.40
2024-01-17T02:47:13.336Z,4.40
2024-01-17T02:48:13.391Z,4.80
2024-01-17T02:49:13.377Z,4.80
2024-01-17T02:50:13.306Z,4.00
2024-01-17T02:51:13.374Z,4.20
2024-01-17T02:52:13.342Z,4.60
2024-01-17T02:53:13.304Z,4.50
2024-01-17T02:54:13.289Z,4.60
2024-01-17T02:55:13.300Z,4.80
2024-01-17T02:56:13.282Z,4.40
2024-01-17T02:57:13.350Z,4.40
2024-01-17T02:58:13.301Z,4.70
2024-01-17T02:59:13.357Z,4.80
2024-01-17T03:00:13.349Z,4.40
2024-01-17T03:01:13.310Z,4.60
2024-01-17T03:02:13.254Z,5.00
2024-01-17T03:03:13.349Z,3.90
2024-01-17T03:04:13.251Z,4.30
2024-01-17T03:05:13.278Z,4.70
2024-01-17T03:06:13.377Z,4.60
2024-01-17T03:07:13.275Z,4.40
2024-01-17T03:08:13.231Z,4.70
2024-01-17T03:09:13.313Z,4.50
2024-01-17T03:10:13.261Z,4.90
2024-01-17T03:11:13.237Z,4.20
2024-01-17T03:12:13.243Z,4.30
2024-01-17T03:13:13.220Z,4.50
2024-01-17T03:14:13.208Z,4.00
2024-01-17T03:15:13.310Z,4.30
2024-01-17T03:16:13.217Z,4.30
2024-01-17T03:17:13.201Z,5.40
2024-01-17T03:18:13.284Z,5.90
2024-01-17T03:19:13.361Z,5.80
2024-01-17T03:20:13.167Z,6.40
2024-01-17T03:21:13.198Z,5.20
2024-01-17T03:22:13.200Z,5.80
2024-01-17T03:23:13.191Z,5.10
2024-01-17T03:24:13.188Z,5.70
2024-01-17T03:25:13.136Z,5.30
2024-01-17T03:26:13.153Z,5.10
2024-01-17T03:27:13.168Z,6.20
2024-01-17T03:28:13.184Z,5.80
2024-01-17T03:29:13.129Z,5.90
2024-01-17T03:30:13.464Z,5.90
2024-01-17T03:31:13.268Z,6.30
2024-01-17T03:32:13.148Z,5.70
2024-01-17T03:33:13.203Z,5.10
2024-01-17T03:34:13.174Z,5.40
2024-01-17T03:35:13.108Z,5.30
2024-01-17T03:36:13.322Z,5.50
2024-01-17T03:37:13.086Z,6.50
2024-01-17T03:38:13.100Z,5.60
2024-01-17T03:39:13.119Z,5.00
2024-01-17T03:40:13.106Z,5.90
2024-01-17T03:41:13.127Z,5.50
2024-01-17T03:42:13.093Z,5.20
2024-01-17T03:43:13.099Z,5.30
2024-01-17T03:44:13.070Z,5.60
2024-01-17T03:45:13.056Z,5.20
2024-01-17T03:46:13.062Z,5.70
2024-01-17T03:47:13.160Z,5.40
2024-01-17T03:48:13.149Z,5.20
2024-01-17T03:49:13.201Z,5.40
2024-01-17T03:50:13.028Z,5.40
2024-01-17T03:51:13.084Z,5.10
2024-01-17T03:52:13.074Z,5.30
2024-01-17T03:53:13.042Z,5.80
2024-01-17T03:54:13.077Z,6.10
2024-01-17T03:55:13.063Z,5.60
2024-01-17T03:56:13.032Z,6.00
2024-01-17T03:57:13.095Z,5.60
2024-01-17T03:58:13.029Z,6.40
2024-01-17T03:59:12.987Z,5.10
2024-01-17T04:00:13.063Z,4.90
2024-01-17T04:01:13.066Z,5.30
2024-01-17T04:02:13.001Z,5.30
2024-01-17T04:03:13.193Z,4.80
2024-01-17T04:04:12.997Z,5.30
2024-01-17T04:05:13.012Z,5.30
2024-01-17T04:06:13.025Z,5.20
2024-01-17T04:07:13.032Z,5.30
2024-01-17T04:08:12.932Z,5.20
2024-01-17T04:09:13.020Z,5.20
2024-01-17T04:10:12.931Z,5.70
2024-01-17T04:11:12.944Z,5.20
2024-01-17T04:12:12.964Z,4.70
2024-01-17T04:13:12.972Z,4.70
2024-01-17T04:14:12.966Z,5.30
2024-01-17T04:15:13.135Z,4.70
2024-01-17T04:16:12.933Z,5.10
2024-01-17T04:17:12.937Z,5.60
2024-01-17T04:18:13.074Z,5.10
2024-01-17T04:19:13.118Z,5.80
2024-01-17T04:20:12.912Z,5.00
2024-01-17T04:21:13.966Z,4.60
2024-01-17T04:22:12.916Z,5.40
2024-01-17T04:23:12.925Z,5.70
2024-01-17T04:24:12.934Z,5.00
2024-01-17T04:25:13.491Z,5.20
2024-01-17T04:26:12.880Z,5.50
2024-01-17T04:27:13.009Z,5.10
2024-01-17T04:28:12.925Z,6.10
2024-01-17T04:29:12.854Z,5.10
2024-01-17T04:30:13.033Z,4.70
2024-01-17T04:31:12.871Z,5.20
2024-01-17T04:32:12.842Z,4.90
2024-01-17T04:33:12.892Z,5.30
2024-01-17T04:34:12.949Z,5.30
2024-01-17T04:35:12.827Z,4.60
2024-01-17T04:36:12.842Z,4.50
2024-01-17T04:37:12.803Z,5.20
2024-01-17T04:38:12.800Z,6.00
2024-01-17T04:39:13.172Z,4.60
2024-01-17T04:40:12.783Z,5.80
2024-01-17T04:41:12.769Z,5.30
2024-01-17T04:42:12.872Z,5.10
2024-01-17T04:43:12.808Z,4.60
2024-01-17T04:44:12.807Z,5.00
2024-01-17T04:45:12.774Z,4.50
2024-01-17T04:46:12.772Z,5.30
2024-01-17T04:47:12.720Z,4.60
2024-01-17T04:48:12.959Z,5.70
2024-01-17T04:49:12.895Z,4.50
2024-01-17T04:50:12.849Z,5.20
2024-01-17T04:51:13.915Z,5.00
2024-01-17T04:52:13.711Z,5.30
2024-01-17T04:53:12.701Z,4.50
2024-01-17T04:54:12.727Z,4.60
2024-01-17T04:55:12.710Z,4.50
2024-01-17T04:56:12.778Z,4.50
2024-01-17T04:57:12.680Z,4.70
2024-01-17T04:58:12.674Z,4.70
2024-01-17T04:59:12.701Z,4.60
2024-01-17T05:00:12.713Z,5.10
2024-01-17T05:01:12.696Z,4.70
2024-01-17T05:02:12.694Z,4.70
2024-01-17T05:03:12.748Z,4.80
2024-01-17T05:04:12.649Z,4.40
2024-01-17T05:05:12.800Z,4.30
2024-01-17T05:06:12.786Z,4.40
2024-01-17T05:07:12.748Z,4.50
2024-01-17T05:08:12.671Z,4.60
2024-01-17T05:09:12.634Z,4.20
2024-01-17T05:10:12.646Z,5.20
2024-01-17T05:11:12.611Z,5.10
2024-01-17T05:12:12.975Z,5.70
2024-01-17T05:13:13.623Z,4.90
2024-01-17T05:14:12.630Z,5.30
2024-01-17T05:15:12.605Z,4.50
2024-01-17T05:16:12.601Z,5.40
2024-01-17T05:17:12.626Z,4.40
2024-01-17T05:18:12.728Z,4.60
2024-01-17T05:19:16.092Z,4.50
2024-01-17T05:20:12.579Z,4.90
2024-01-17T05:21:12.607Z,4.60
2024-01-17T05:22:12.582Z,3.90
2024-01-17T05:23:13.662Z,4.50
2024-01-17T05:24:12.656Z,4.40
2024-01-17T05:25:12.559Z,5.00
2024-01-17T05:26:12.552Z,4.90
2024-01-17T05:27:12.575Z,4.20
2024-01-17T05:28:12.560Z,4.70
2024-01-17T05:29:12.568Z,4.70
2024-01-17T05:30:15.967Z,4.00
2024-01-17T05:31:13.603Z,4.70
2024-01-17T05:32:12.519Z,4.50
2024-01-17T05:33:12.544Z,4.80
2024-01-17T05:34:12.616Z,4.40
2024-01-17T05:35:12.487Z,4.90
2024-01-17T05:36:12.549Z,4.60
2024-01-17T05:37:12.521Z,5.30
2024-01-17T05:38:12.491Z,4.30
2024-01-17T05:39:12.633Z,4.20
2024-01-17T05:40:12.468Z,4.90
2024-01-17T05:41:12.505Z,4.30
2024-01-17T05:42:12.578Z,4.50
2024-01-17T05:43:12.448Z,4.90
2024-01-17T05:44:15.507Z,4.50
2024-01-17T05:45:13.567Z,4.50
2024-01-17T05:46:12.478Z,5.60
2024-01-17T05:47:12.453Z,4.60
2024-01-17T05:48:12.532Z,4.60
2024-01-17T05:49:12.529Z,4.80
2024-01-17T05:50:12.424Z,4.20
2024-01-17T05:51:12.523Z,5.50
2024-01-17T05:52:12.464Z,4.80
2024-01-17T05:53:12.403Z,4.30
2024-01-17T05:54:12.485Z,4.40
2024-01-17T05:55:12.406Z,4.40
2024-01-17T05:56:12.421Z,4.50
2024-01-17T05:57:12.396Z,4.90
2024-01-17T05:58:12.399Z,4.40
2024-01-17T05:59:12.374Z,4.20
2024-01-17T06:00:12.624Z,4.60
2024-01-17T06:01:12.438Z,4.20
2024-01-17T06:02:12.371Z,4.10
2024-01-17T06:03:12.415Z,4.70
2024-01-17T06:04:12.382Z,3.90
2024-01-17T06:05:12.377Z,4.40
2024-01-17T06:06:12.382Z,4.50
2024-01-17T06:07:12.495Z,4.30
2024-01-17T06:08:12.318Z,4.40
2024-01-17T06:09:12.345Z,4.60
2024-01-17T06:10:12.341Z,4.60
2024-01-17T06:11:12.450Z,4.30
2024-01-17T06:12:12.361Z,4.90
2024-01-17T06:13:12.310Z,6.60
2024-01-17T06:14:14.760Z,7.40
2024-01-17T06:15:12.309Z,6.30
2024-01-17T06:16:12.309Z,6.10
2024-01-17T06:17:12.347Z,5.30
2024-01-17T06:18:12.380Z,5.20
2024-01-17T06:19:12.337Z,5.30
2024-01-17T06:20:12.278Z,5.10
2024-01-17T06:21:12.354Z,4.50
2024-01-17T06:22:12.293Z,4.80
2024-01-17T06:23:12.322Z,4.80
2024-01-17T06:24:12.307Z,5.50
2024-01-17T06:25:12.253Z,5.10
2024-01-17T06:26:12.267Z,5.00
2024-01-17T06:27:12.326Z,5.30
2024-01-17T06:28:12.233Z,6.30
2024-01-17T06:29:12.255Z,7.20
2024-01-17T06:30:12.337Z,8.30
2024-01-17T06:31:12.325Z,8.30
2024-01-17T06:32:12.234Z,8.50
2024-01-17T06:33:12.305Z,9.40
2024-01-17T06:34:12.367Z,8.70
2024-01-17T06:35:12.213Z,7.90
2024-01-17T06:36:12.295Z,13.80
2024-01-17T06:37:12.603Z,12.70
2024-01-17T06:38:12.175Z,11.40
2024-01-17T06:39:12.249Z,10.70
2024-01-17T06:40:12.261Z,11.50
2024-01-17T06:41:12.168Z,11.90
2024-01-17T06:42:12.314Z,12.60
2024-01-17T06:43:12.167Z,11.50
2024-01-17T06:44:12.151Z,14.30
2024-01-17T06:45:12.410Z,13.10
2024-01-17T06:46:12.162Z,15.20
2024-01-17T06:47:12.143Z,12.70
2024-01-17T06:48:12.351Z,12.20
2024-01-17T06:49:12.209Z,13.60
2024-01-17T06:50:12.139Z,13.00
2024-01-17T06:51:12.170Z,12.20
2024-01-17T06:52:12.160Z,9.60
2024-01-17T06:53:12.116Z,8.40
2024-01-17T06:54:12.222Z,8.40
2024-01-17T06:55:13.446Z,8.80
2024-01-17T06:56:12.097Z,8.10
2024-01-17T06:57:12.128Z,8.50
2024-01-17T06:58:12.100Z,7.30
2024-01-17T06:59:12.089Z,8.10
2024-01-17T07:00:12.173Z,7.90
2024-01-17T07:01:12.156Z,7.20
2024-01-17T07:02:12.044Z,6.40
2024-01-17T07:03:12.214Z,5.30
2024-01-17T07:04:12.097Z,5.70
2024-01-17T07:05:12.133Z,5.90
2024-01-17T07:06:12.362Z,5.90
2024-01-17T07:07:12.029Z,4.90
2024-01-17T07:08:12.133Z,5.10
2024-01-17T07:09:12.071Z,5.30
2024-01-17T07:10:12.034Z,7.30
2024-01-17T07:11:12.021Z,6.20
2024-01-17T07:12:12.061Z,7.10
2024-01-17T07:13:12.049Z,6.80
2024-01-17T07:14:12.029Z,7.10
2024-01-17T07:15:12.096Z,7.20
2024-01-17T07:16:11.997Z,7.10
2024-01-17T07:17:12.030Z,6.70
2024-01-17T07:18:12.097Z,7.10
2024-01-17T07:19:11.985Z,7.60
2024-01-17T07:20:12.006Z,9.20
2024-01-17T07:21:11.995Z,9.20
2024-01-17T07:22:11.973Z,9.60
2024-01-17T07:23:12.002Z,9.60
2024-01-17T07:24:12.232Z,11.40
2024-01-17T07:25:11.946Z,12.00
2024-01-17T07:26:11.954Z,12.70
2024-01-17T07:27:12.021Z,13.70
2024-01-17T07:28:11.968Z,14.00
2024-01-17T07:29:12.003Z,15.80
2024-01-17T07:30:12.015Z,13.20
2024-01-17T07:31:11.901Z,11.10
2024-01-17T07:32:11.989Z,8.80
2024-01-17T07:33:12.043Z,7.60
2024-01-17T07:34:12.029Z,6.70
2024-01-17T07:35:11.911Z,8.10
2024-01-17T07:36:12.195Z,8.90
2024-01-17T07:37:15.156Z,9.70
2024-01-17T07:38:12.906Z,10.80
2024-01-17T07:39:12.006Z,9.30
2024-01-17T07:40:11.997Z,9.90
2024-01-17T07:41:11.902Z,9.50
2024-01-17T07:42:11.951Z,9.00
2024-01-17T07:43:11.852Z,10.10
2024-01-17T07:44:11.854Z,16.80
2024-01-17T07:45:12.019Z,16.60
2024-01-17T07:46:11.850Z,13.20
2024-01-17T07:47:11.830Z,11.40
2024-01-17T07:48:12.018Z,10.40
2024-01-17T07:49:11.997Z,13.60
2024-01-17T07:50:11.851Z,11.40
2024-01-17T07:51:11.901Z,12.70
2024-01-17T07:52:11.836Z,12.20
2024-01-17T07:53:11.794Z,10.10
2024-01-17T07:54:11.833Z,8.60
2024-01-17T07:55:11.806Z,8.20
2024-01-17T07:56:11.803Z,7.80
2024-01-17T07:57:11.828Z,7.90
2024-01-17T07:58:11.781Z,8.10
2024-01-17T07:59:11.794Z,7.10
2024-01-17T08:00:11.858Z,6.90
2024-01-17T08:01:11.811Z,6.40
2024-01-17T08:02:11.780Z,7.40
2024-01-17T08:03:11.906Z,6.90
2024-01-17T08:04:11.818Z,7.80
2024-01-17T08:05:11.802Z,7.70
2024-01-17T08:06:11.790Z,7.20
2024-01-17T08:07:11.811Z,7.30
2024-01-17T08:08:11.721Z,6.50
2024-01-17T08:09:11.808Z,7.40
2024-01-17T08:10:11.718Z,7.10
2024-01-17T08:11:11.731Z,7.30
2024-01-17T08:12:11.735Z,7.70
2024-01-17T08:13:11.715Z,7.60
2024-01-17T08:14:11.732Z,8.10
2024-01-17T08:15:11.762Z,8.00
2024-01-17T08:16:11.741Z,7.40
2024-01-17T08:17:11.733Z,8.80
2024-01-17T08:18:11.838Z,9.00
2024-01-17T08:19:11.819Z,9.40
2024-01-17T08:20:11.741Z,9.00
2024-01-17T08:21:11.779Z,8.30
2024-01-17T08:22:11.654Z,9.50
2024-01-17T08:23:11.676Z,8.70
2024-01-17T08:24:11.740Z,7.50
2024-01-17T08:25:11.683Z,7.20
2024-01-17T08:26:11.685Z,16.70
2024-01-17T08:27:11.660Z,12.90
2024-01-17T08:28:11.647Z,8.80
2024-01-17T08:29:11.820Z,8.60
2024-01-17T08:30:12.103Z,10.00
2024-01-17T08:31:11.626Z,8.40
2024-01-17T08:32:11.650Z,7.40
2024-01-17T08:33:11.678Z,6.90
2024-01-17T08:34:11.822Z,8.70
2024-01-17T08:35:11.680Z,7.70
2024-01-17T08:36:11.661Z,7.70
2024-01-17T08:37:11.613Z,7.30
2024-01-17T08:38:11.605Z,8.20
2024-01-17T08:39:11.663Z,6.90
2024-01-17T08:40:11.596Z,7.40
2024-01-17T08:41:11.584Z,7.20
2024-01-17T08:42:11.734Z,7.00
2024-01-17T08:43:11.559Z,7.10
2024-01-17T08:44:11.576Z,6.70
2024-01-17T08:45:11.785Z,6.20
2024-01-17T08:46:11.563Z,5.80
2024-01-17T08:47:11.679Z,6.80
2024-01-17T08:48:11.623Z,7.80
2024-01-17T08:49:11.609Z,6.40
2024-01-17T08:50:11.537Z,6.00
2024-01-17T08:51:11.632Z,7.50
2024-01-17T08:52:11.534Z,6.20
2024-01-17T08:53:11.541Z,8.10
2024-01-17T08:54:11.683Z,6.20
2024-01-17T08:55:11.528Z,5.60
2024-01-17T08:56:11.530Z,6.60
2024-01-17T08:57:12.547Z,6.60
2024-01-17T08:58:11.517Z,5.80
2024-01-17T08:59:11.541Z,4.70
2024-01-17T09:00:11.532Z,5.50
2024-01-17T09:01:11.578Z,6.00
2024-01-17T09:02:11.495Z,5.90
2024-01-17T09:03:11.522Z,6.00
2024-01-17T09:04:11.489Z,6.10
2024-01-17T09:05:11.522Z,5.80
2024-01-17T09:06:11.504Z,4.90
2024-01-17T09:07:11.527Z,5.50
2024-01-17T09:08:11.572Z,4.90
2024-01-17T09:09:11.538Z,6.40
2024-01-17T09:10:11.454Z,5.20
2024-01-17T09:11:11.463Z,7.40
2024-01-17T09:12:11.457Z,7.30
2024-01-17T09:13:11.544Z,7.10
2024-01-17T09:14:11.441Z,5.40
2024-01-17T09:15:11.445Z,4.60
2024-01-17T09:16:11.387Z,4.60
2024-01-17T09:17:11.414Z,5.60
2024-01-17T09:18:11.450Z,5.20
2024-01-17T09:19:11.511Z,5.80
2024-01-17T09:20:11.465Z,5.10
2024-01-17T09:21:11.405Z,5.60
2024-01-17T09:22:11.364Z,4.70
2024-01-17T09:23:11.431Z,6.20
2024-01-17T09:24:11.416Z,6.10
2024-01-17T09:25:11.378Z,6.40
2024-01-17T09:26:11.338Z,7.00
2024-01-17T09:27:11.492Z,8.70
2024-01-17T09:28:11.368Z,9.30
2024-01-17T09:29:11.418Z,8.20
2024-01-17T09:30:11.367Z,10.20
2024-01-17T09:31:11.334Z,7.80
2024-01-17T09:32:15.344Z,8.60
2024-01-17T09:33:12.520Z,7.90
2024-01-17T09:34:11.398Z,6.50
2024-01-17T09:35:11.297Z,7.80
2024-01-17T09:36:11.354Z,9.50
2024-01-17T09:37:11.325Z,10.80
2024-01-17T09:38:11.294Z,7.70
2024-01-17T09:39:11.525Z,7.30
2024-01-17T09:40:11.331Z,5.80
2024-01-17T09:41:11.374Z,5.90
2024-01-17T09:42:11.359Z,5.70
2024-01-17T09:43:12.893Z,6.80
2024-01-17T09:44:12.268Z,5.30
2024-01-17T09:45:11.431Z,5.20
2024-01-17T09:46:11.287Z,4.70
2024-01-17T09:47:11.283Z,5.30
2024-01-17T09:48:11.331Z,5.80
2024-01-17T09:49:11.649Z,4.50
2024-01-17T09:50:11.315Z,5.10
2024-01-17T09:51:11.357Z,5.20
2024-01-17T09:52:11.270Z,4.30
2024-01-17T09:53:11.264Z,4.80
2024-01-17T09:54:12.758Z,4.50
2024-01-17T09:55:11.248Z,5.10
2024-01-17T09:56:11.228Z,5.70
2024-01-17T09:57:11.285Z,5.30
2024-01-17T09:58:11.218Z,5.50
2024-01-17T09:59:11.209Z,5.00
2024-01-17T10:00:12.986Z,4.90
2024-01-17T10:01:11.250Z,4.40
2024-01-17T10:02:11.214Z,5.80
2024-01-17T10:03:11.280Z,5.60
2024-01-17T10:04:11.224Z,4.90
2024-01-17T10:05:11.213Z,5.00
2024-01-17T10:06:11.265Z,4.80
2024-01-17T10:07:11.169Z,4.70
2024-01-17T10:08:12.177Z,4.40
2024-01-17T10:09:11.333Z,4.30
2024-01-17T10:10:11.170Z,4.60
2024-01-17T10:11:11.198Z,4.70
2024-01-17T10:12:11.178Z,4.40
2024-01-17T10:13:11.146Z,4.70
2024-01-17T10:14:11.130Z,5.20
2024-01-17T10:15:11.194Z,5.40
2024-01-17T10:16:11.187Z,5.80
2024-01-17T10:17:11.135Z,5.70
2024-01-17T10:18:11.207Z,4.30
2024-01-17T10:19:11.319Z,4.90
2024-01-17T10:20:11.179Z,5.10
2024-01-17T10:21:11.238Z,4.50
2024-01-17T10:22:11.119Z,4.90
2024-01-17T10:23:11.101Z,5.00
2024-01-17T10:24:11.110Z,4.60
2024-01-17T10:25:11.084Z,5.20
2024-01-17T10:26:11.065Z,4.10
2024-01-17T10:27:11.188Z,4.80
2024-01-17T10:28:11.050Z,5.00
2024-01-17T10:29:11.050Z,4.30
2024-01-17T10:30:11.063Z,4.60
2024-01-17T10:31:11.041Z,4.70
2024-01-17T10:32:11.096Z,5.10
2024-01-17T10:33:11.147Z,4.80
2024-01-17T10:34:11.229Z,4.80
2024-01-17T10:35:11.108Z,4.80
2024-01-17T10:36:11.054Z,4.40
2024-01-17T10:37:11.049Z,4.70
2024-01-17T10:38:11.019Z,4.80
2024-01-17T10:39:11.037Z,5.20
2024-01-17T10:40:11.106Z,5.10
2024-01-17T10:41:11.013Z,4.70
2024-01-17T10:42:11.010Z,4.60
2024-01-17T10:43:11.434Z,4.80
2024-01-17T10:44:10.975Z,5.30
2024-01-17T10:45:11.049Z,4.50
2024-01-17T10:46:10.989Z,4.40
2024-01-17T10:47:11.794Z,4.50
2024-01-17T10:48:12.075Z,4.00
2024-01-17T10:49:11.141Z,4.20
2024-01-17T10:50:10.977Z,4.60
2024-01-17T10:51:10.985Z,4.70
2024-01-17T10:52:10.947Z,5.30
2024-01-17T10:53:10.962Z,4.80
2024-01-17T10:54:10.985Z,4.70
2024-01-17T10:55:10.947Z,4.70
2024-01-17T10:56:10.944Z,4.80
2024-01-17T10:57:10.987Z,4.50
2024-01-17T10:58:10.964Z,5.30
2024-01-17T10:59:10.975Z,4.70
2024-01-17T11:00:10.995Z,4.80
2024-01-17T11:01:10.951Z,5.30
2024-01-17T11:02:10.910Z,4.80
2024-01-17T11:03:11.079Z,4.90
2024-01-17T11:04:10.984Z,4.30
2024-01-17T11:05:10.900Z,5.10
2024-01-17T11:06:10.912Z,4.60
2024-01-17T11:07:10.886Z,4.80
2024-01-17T11:08:10.906Z,4.70
2024-01-17T11:09:10.946Z,5.30
2024-01-17T11:10:10.894Z,4.90
2024-01-17T11:11:10.834Z,4.70
2024-01-17T11:12:11.928Z,7.20
2024-01-17T11:13:10.905Z,6.40
2024-01-17T11:14:10.874Z,4.90
2024-01-17T11:15:10.885Z,4.30
2024-01-17T11:16:10.861Z,4.80
2024-01-17T11:17:15.063Z,4.50
2024-01-17T11:18:11.888Z,4.90
2024-01-17T11:19:11.012Z,5.70
2024-01-17T11:20:10.846Z,4.30
2024-01-17T11:21:10.856Z,4.30
2024-01-17T11:22:10.797Z,4.80
2024-01-17T11:23:10.821Z,4.90
2024-01-17T11:24:10.955Z,4.50
2024-01-17T11:25:10.779Z,6.30
2024-01-17T11:26:10.814Z,8.90
2024-01-17T11:27:10.863Z,7.00
2024-01-17T11:28:10.801Z,5.00
2024-01-17T11:29:10.809Z,4.70
2024-01-17T11:30:10.827Z,4.50
2024-01-17T11:31:10.828Z,4.20
2024-01-17T11:32:10.801Z,4.90
2024-01-17T11:33:10.810Z,11.00
2024-01-17T11:34:10.874Z,9.10
2024-01-17T11:35:10.807Z,6.60
2024-01-17T11:36:10.813Z,5.80
2024-01-17T11:37:10.749Z,5.20
2024-01-17T11:38:10.735Z,5.20
2024-01-17T11:39:11.654Z,5.50
2024-01-17T11:40:10.767Z,5.90
2024-01-17T11:41:10.807Z,5.20
2024-01-17T11:42:10.729Z,5.80
2024-01-17T11:43:10.726Z,4.70
2024-01-17T11:44:10.721Z,4.80
2024-01-17T11:45:14.327Z,5.70
2024-01-17T11:46:10.905Z,4.90
2024-01-17T11:47:10.714Z,5.40
2024-01-17T11:48:10.726Z,5.60
2024-01-17T11:49:10.907Z,5.90
2024-01-17T11:50:10.672Z,5.20
2024-01-17T11:51:10.739Z,5.30
2024-01-17T11:52:10.702Z,5.80
2024-01-17T11:53:10.693Z,5.30
2024-01-17T11:54:10.684Z,6.50
2024-01-17T11:55:10.666Z,5.50
2024-01-17T11:56:10.778Z,5.50
2024-01-17T11:57:10.705Z,5.40
2024-01-17T11:58:10.659Z,6.10
2024-01-17T11:59:10.658Z,6.40
2024-01-17T12:00:10.702Z,6.50
2024-01-17T12:01:10.672Z,7.00
2024-01-17T12:02:10.713Z,5.80
2024-01-17T12:03:10.633Z,6.80
2024-01-17T12:04:10.619Z,6.30
2024-01-17T12:05:10.633Z,6.50
2024-01-17T12:06:10.710Z,6.00
2024-01-17T12:07:10.692Z,5.40
2024-01-17T12:08:10.694Z,6.20
2024-01-17T12:09:10.629Z,11.50
2024-01-17T12:10:10.586Z,7.60
2024-01-17T12:11:10.603Z,6.60
2024-01-17T12:12:10.596Z,6.00
2024-01-17T12:13:10.725Z,6.20
2024-01-17T12:14:10.580Z,6.90
2024-01-17T12:15:10.593Z,5.70
2024-01-17T12:16:10.601Z,6.10
2024-01-17T12:17:10.560Z,6.80
2024-01-17T12:18:10.641Z,6.80
2024-01-17T12:19:10.774Z,6.50
2024-01-17T12:20:10.564Z,6.90
2024-01-17T12:21:10.578Z,7.20
2024-01-17T12:22:10.556Z,6.20
2024-01-17T12:23:10.542Z,6.80
2024-01-17T12:24:10.595Z,6.20
2024-01-17T12:25:10.509Z,6.30
2024-01-17T12:26:10.545Z,6.20
2024-01-17T12:27:10.541Z,6.90
2024-01-17T12:28:10.521Z,6.70
2024-01-17T12:29:10.646Z,7.10
2024-01-17T12:30:10.543Z,6.50
2024-01-17T12:31:10.513Z,6.40
2024-01-17T12:32:10.513Z,7.50
2024-01-17T12:33:10.571Z,7.30
2024-01-17T12:34:10.708Z,8.00
2024-01-17T12:35:11.539Z,7.70
2024-01-17T12:36:10.606Z,6.60
2024-01-17T12:37:10.457Z,7.60
2024-01-17T12:38:10.483Z,7.40
2024-01-17T12:39:10.609Z,6.80
2024-01-17T12:40:10.482Z,6.80
2024-01-17T12:41:10.450Z,6.50
2024-01-17T12:42:10.521Z,6.10
2024-01-17T12:43:10.446Z,6.90
2024-01-17T12:44:10.466Z,6.20
2024-01-17T12:45:10.526Z,5.80
2024-01-17T12:46:10.432Z,6.30
2024-01-17T12:47:10.429Z,6.00
2024-01-17T12:48:10.500Z,7.00
2024-01-17T12:49:10.576Z,6.50
2024-01-17T12:50:10.415Z,6.40
2024-01-17T12:51:10.397Z,6.30
2024-01-17T12:52:10.423Z,5.80
2024-01-17T12:53:10.406Z,5.80
2024-01-17T12:54:10.399Z,5.90
2024-01-17T12:55:10.377Z,5.60
2024-01-17T12:56:10.440Z,6.20
2024-01-17T12:57:10.468Z,5.50
2024-01-17T12:58:10.375Z,6.20
2024-01-17T12:59:10.377Z,6.60
2024-01-17T13:00:10.458Z,5.60
2024-01-17T13:01:10.545Z,5.80
2024-01-17T13:02:10.409Z,6.40
2024-01-17T13:03:14.179Z,6.70
2024-01-17T13:04:10.395Z,6.80
2024-01-17T13:05:10.487Z,6.70
2024-01-17T13:06:10.742Z,5.90
2024-01-17T13:07:12.720Z,7.00
2024-01-17T13:08:10.329Z,7.00
2024-01-17T13:09:10.380Z,6.30
2024-01-17T13:10:10.306Z,6.20
2024-01-17T13:11:10.326Z,5.90
2024-01-17T13:12:10.416Z,6.50
2024-01-17T13:13:10.303Z,9.40
2024-01-17T13:14:10.316Z,6.50
2024-01-17T13:15:10.336Z,6.60